sensor_id;sensor_type;location;lat;lon;timestamp;P1;durP1;ratioP1;P2;durP2;ratioP2
56770;SDS011;42641;59.794;17.616;2022-10-16T00:01:06;30.57;;;21.00;;
56770;SDS011;42641;59.794;17.616;2022-10-16T00:03:41;35.17;;;21.77;;
56770;SDS011;42641;59.794;17.616;2022-10-16T00:06:08;31.10;;;20.63;;
56770;SDS011;42641;59.794;17.616;2022-10-16T00:08:36;29.67;;;19.80;;
56770;SDS011;42641;59.794;17.616;2022-10-16T00:11:04;32.93;;;19.83;;
56770;SDS011;42641;59.794;17.616;2022-10-16T00:13:33;30.73;;;20.03;;
56770;SDS011;42641;59.794;17.616;2022-10-16T00:16:01;28.77;;;19.30;;
56770;SDS011;42641;59.794;17.616;2022-10-16T00:18:28;28.13;;;18.63;;
56770;SDS011;42641;59.794;17.616;2022-10-16T00:20:55;25.27;;;18.90;;
56770;SDS011;42641;59.794;17.616;2022-10-16T00:23:49;24.40;;;17.70;;
56770;SDS011;42641;59.794;17.616;2022-10-16T00:26:20;25.13;;;17.50;;
56770;SDS011;42641;59.794;17.616;2022-10-16T00:28:47;22.37;;;16.83;;
56770;SDS011;42641;59.794;17.616;2022-10-16T00:31:16;23.27;;;16.60;;
56770;SDS011;42641;59.794;17.616;2022-10-16T00:33:43;25.90;;;16.43;;
56770;SDS011;42641;59.794;17.616;2022-10-16T00:36:11;26.17;;;17.00;;
56770;SDS011;42641;59.794;17.616;2022-10-16T00:38:39;24.07;;;16.83;;
56770;SDS011;42641;59.794;17.616;2022-10-16T00:41:06;23.67;;;16.20;;
56770;SDS011;42641;59.794;17.616;2022-10-16T00:46:48;21.97;;;16.27;;
56770;SDS011;42641;59.794;17.616;2022-10-16T00:49:16;21.20;;;14.60;;
56770;SDS011;42641;59.794;17.616;2022-10-16T00:51:47;19.60;;;14.07;;
56770;SDS011;42641;59.794;17.616;2022-10-16T00:54:26;19.40;;;14.73;;
56770;SDS011;42641;59.794;17.616;2022-10-16T00:56:55;21.70;;;14.17;;
56770;SDS011;42641;59.794;17.616;2022-10-16T00:59:25;21.63;;;14.63;;
56770;SDS011;42641;59.794;17.616;2022-10-16T01:01:53;21.67;;;14.33;;
56770;SDS011;42641;59.794;17.616;2022-10-16T01:04:20;18.37;;;14.37;;
56770;SDS011;42641;59.794;17.616;2022-10-16T01:09:21;17.83;;;13.73;;
56770;SDS011;42641;59.794;17.616;2022-10-16T01:14:22;16.83;;;13.37;;
56770;SDS011;42641;59.794;17.616;2022-10-16T01:17:03;17.60;;;12.53;;
56770;SDS011;42641;59.794;17.616;2022-10-16T01:22:09;18.40;;;12.60;;
56770;SDS011;42641;59.794;17.616;2022-10-16T01:24:40;15.87;;;12.00;;
56770;SDS011;42641;59.794;17.616;2022-10-16T01:29:42;16.67;;;12.40;;
56770;SDS011;42641;59.794;17.616;2022-10-16T01:35:13;17.33;;;11.53;;
56770;SDS011;42641;59.794;17.616;2022-10-16T01:37:48;20.77;;;12.10;;
56770;SDS011;42641;59.794;17.616;2022-10-16T01:40:19;16.87;;;12.07;;
56770;SDS011;42641;59.794;17.616;2022-10-16T01:43:23;15.80;;;11.93;;
56770;SDS011;42641;59.794;17.616;2022-10-16T01:45:44;14.30;;;11.67;;
56770;SDS011;42641;59.794;17.616;2022-10-16T01:48:13;16.60;;;11.60;;
56770;SDS011;42641;59.794;17.616;2022-10-16T01:50:43;14.23;;;11.37;;
56770;SDS011;42641;59.794;17.616;2022-10-16T01:53:14;14.60;;;11.50;;
56770;SDS011;42641;59.794;17.616;2022-10-16T01:55:44;12.00;;;10.70;;
56770;SDS011;42641;59.794;17.616;2022-10-16T01:58:13;12.77;;;10.93;;
56770;SDS011;42641;59.794;17.616;2022-10-16T02:00:41;15.07;;;10.50;;
56770;SDS011;42641;59.794;17.616;2022-10-16T02:03:10;11.20;;;9.50;;
56770;SDS011;42641;59.794;17.616;2022-10-16T02:05:47;13.70;;;10.40;;
56770;SDS011;42641;59.794;17.616;2022-10-16T02:08:22;10.10;;;8.57;;
56770;SDS011;42641;59.794;17.616;2022-10-16T02:10:57;10.23;;;9.10;;
56770;SDS011;42641;59.794;17.616;2022-10-16T02:13:33;11.13;;;8.90;;
56770;SDS011;42641;59.794;17.616;2022-10-16T02:16:08;11.57;;;9.53;;
56770;SDS011;42641;59.794;17.616;2022-10-16T02:18:35;9.77;;;8.77;;
56770;SDS011;42641;59.794;17.616;2022-10-16T02:21:04;11.07;;;8.70;;
56770;SDS011;42641;59.794;17.616;2022-10-16T02:23:53;9.10;;;8.20;;
56770;SDS011;42641;59.794;17.616;2022-10-16T02:26:27;10.40;;;9.33;;
56770;SDS011;42641;59.794;17.616;2022-10-16T02:29:14;12.00;;;9.30;;
56770;SDS011;42641;59.794;17.616;2022-10-16T02:31:44;14.43;;;10.20;;
56770;SDS011;42641;59.794;17.616;2022-10-16T02:34:14;12.37;;;10.60;;
56770;SDS011;42641;59.794;17.616;2022-10-16T02:36:42;14.00;;;10.60;;
56770;SDS011;42641;59.794;17.616;2022-10-16T02:39:11;14.13;;;10.73;;
56770;SDS011;42641;59.794;17.616;2022-10-16T02:41:38;12.50;;;10.73;;
56770;SDS011;42641;59.794;17.616;2022-10-16T02:44:04;13.53;;;11.27;;
56770;SDS011;42641;59.794;17.616;2022-10-16T02:46:30;18.30;;;11.53;;
56770;SDS011;42641;59.794;17.616;2022-10-16T02:48:57;11.97;;;10.23;;
56770;SDS011;42641;59.794;17.616;2022-10-16T02:51:23;16.30;;;11.60;;
56770;SDS011;42641;59.794;17.616;2022-10-16T02:53:50;15.23;;;11.73;;
56770;SDS011;42641;59.794;17.616;2022-10-16T02:56:16;18.37;;;12.43;;
56770;SDS011;42641;59.794;17.616;2022-10-16T02:58:42;15.73;;;12.17;;
56770;SDS011;42641;59.794;17.616;2022-10-16T03:01:10;16.63;;;12.10;;
56770;SDS011;42641;59.794;17.616;2022-10-16T03:03:38;16.67;;;13.20;;
56770;SDS011;42641;59.794;17.616;2022-10-16T03:06:04;17.83;;;13.23;;
56770;SDS011;42641;59.794;17.616;2022-10-16T03:08:31;19.00;;;12.83;;
56770;SDS011;42641;59.794;17.616;2022-10-16T03:10:58;15.03;;;11.77;;
56770;SDS011;42641;59.794;17.616;2022-10-16T03:13:27;20.80;;;12.50;;
56770;SDS011;42641;59.794;17.616;2022-10-16T03:15:53;17.20;;;12.30;;
56770;SDS011;42641;59.794;17.616;2022-10-16T03:18:19;19.37;;;13.03;;
56770;SDS011;42641;59.794;17.616;2022-10-16T03:20:46;16.53;;;12.30;;
56770;SDS011;42641;59.794;17.616;2022-10-16T03:23:12;15.73;;;12.33;;
56770;SDS011;42641;59.794;17.616;2022-10-16T03:25:39;16.40;;;12.10;;
56770;SDS011;42641;59.794;17.616;2022-10-16T03:28:05;17.77;;;12.17;;
56770;SDS011;42641;59.794;17.616;2022-10-16T03:30:32;12.77;;;10.90;;
56770;SDS011;42641;59.794;17.616;2022-10-16T03:32:58;17.63;;;12.07;;
56770;SDS011;42641;59.794;17.616;2022-10-16T03:35:24;16.23;;;12.20;;
56770;SDS011;42641;59.794;17.616;2022-10-16T03:37:51;15.50;;;11.67;;
56770;SDS011;42641;59.794;17.616;2022-10-16T03:40:17;15.17;;;10.70;;
56770;SDS011;42641;59.794;17.616;2022-10-16T03:42:44;13.70;;;10.57;;
56770;SDS011;42641;59.794;17.616;2022-10-16T03:45:11;12.77;;;10.17;;
56770;SDS011;42641;59.794;17.616;2022-10-16T03:47:37;13.13;;;9.33;;
56770;SDS011;42641;59.794;17.616;2022-10-16T03:50:04;13.53;;;9.77;;
56770;SDS011;42641;59.794;17.616;2022-10-16T03:52:31;13.30;;;10.33;;
56770;SDS011;42641;59.794;17.616;2022-10-16T03:54:58;12.33;;;9.33;;
56770;SDS011;42641;59.794;17.616;2022-10-16T03:57:25;12.37;;;10.20;;
56770;SDS011;42641;59.794;17.616;2022-10-16T03:59:51;12.97;;;9.20;;
56770;SDS011;42641;59.794;17.616;2022-10-16T04:02:17;11.10;;;9.33;;
56770;SDS011;42641;59.794;17.616;2022-10-16T04:04:44;10.90;;;9.30;;
56770;SDS011;42641;59.794;17.616;2022-10-16T04:07:10;15.23;;;9.67;;
56770;SDS011;42641;59.794;17.616;2022-10-16T04:09:36;12.90;;;10.23;;
56770;SDS011;42641;59.794;17.616;2022-10-16T04:12:03;14.97;;;9.87;;
56770;SDS011;42641;59.794;17.616;2022-10-16T04:14:29;13.67;;;9.63;;
56770;SDS011;42641;59.794;17.616;2022-10-16T04:16:55;11.20;;;8.87;;
56770;SDS011;42641;59.794;17.616;2022-10-16T04:19:22;13.63;;;9.73;;
56770;SDS011;42641;59.794;17.616;2022-10-16T04:21:48;11.03;;;9.23;;
56770;SDS011;42641;59.794;17.616;2022-10-16T04:24:15;10.43;;;8.70;;
56770;SDS011;42641;59.794;17.616;2022-10-16T04:26:41;9.40;;;7.90;;
56770;SDS011;42641;59.794;17.616;2022-10-16T04:29:07;11.43;;;8.50;;
56770;SDS011;42641;59.794;17.616;2022-10-16T04:31:33;9.13;;;7.87;;
56770;SDS011;42641;59.794;17.616;2022-10-16T04:34:00;10.60;;;8.27;;
56770;SDS011;42641;59.794;17.616;2022-10-16T04:36:26;8.93;;;8.00;;
56770;SDS011;42641;59.794;17.616;2022-10-16T04:38:52;13.40;;;7.90;;
56770;SDS011;42641;59.794;17.616;2022-10-16T04:41:19;9.93;;;7.83;;
56770;SDS011;42641;59.794;17.616;2022-10-16T04:43:46;7.83;;;7.03;;
56770;SDS011;42641;59.794;17.616;2022-10-16T04:46:12;7.90;;;6.57;;
56770;SDS011;42641;59.794;17.616;2022-10-16T04:48:38;9.53;;;6.60;;
56770;SDS011;42641;59.794;17.616;2022-10-16T04:51:05;6.80;;;5.77;;
56770;SDS011;42641;59.794;17.616;2022-10-16T04:53:31;7.93;;;6.07;;
56770;SDS011;42641;59.794;17.616;2022-10-16T04:55:58;6.83;;;6.10;;
56770;SDS011;42641;59.794;17.616;2022-10-16T04:58:25;12.77;;;5.77;;
56770;SDS011;42641;59.794;17.616;2022-10-16T05:00:51;8.30;;;6.10;;
56770;SDS011;42641;59.794;17.616;2022-10-16T05:03:18;5.57;;;4.90;;
56770;SDS011;42641;59.794;17.616;2022-10-16T05:05:44;7.90;;;5.50;;
56770;SDS011;42641;59.794;17.616;2022-10-16T05:08:12;6.70;;;5.40;;
56770;SDS011;42641;59.794;17.616;2022-10-16T05:10:43;7.20;;;5.33;;
56770;SDS011;42641;59.794;17.616;2022-10-16T05:13:10;6.60;;;5.13;;
56770;SDS011;42641;59.794;17.616;2022-10-16T05:15:37;6.97;;;5.20;;
56770;SDS011;42641;59.794;17.616;2022-10-16T05:18:03;7.17;;;5.30;;
56770;SDS011;42641;59.794;17.616;2022-10-16T05:20:30;5.90;;;5.13;;
56770;SDS011;42641;59.794;17.616;2022-10-16T05:22:56;6.40;;;5.80;;
56770;SDS011;42641;59.794;17.616;2022-10-16T05:25:23;7.17;;;5.70;;
56770;SDS011;42641;59.794;17.616;2022-10-16T05:27:49;6.87;;;5.77;;
56770;SDS011;42641;59.794;17.616;2022-10-16T05:30:16;6.80;;;5.20;;
56770;SDS011;42641;59.794;17.616;2022-10-16T05:32:50;6.83;;;5.30;;
56770;SDS011;42641;59.794;17.616;2022-10-16T05:35:17;7.10;;;5.27;;
56770;SDS011;42641;59.794;17.616;2022-10-16T05:37:44;8.77;;;5.80;;
56770;SDS011;42641;59.794;17.616;2022-10-16T05:40:11;5.90;;;5.30;;
56770;SDS011;42641;59.794;17.616;2022-10-16T05:42:39;8.90;;;5.20;;
56770;SDS011;42641;59.794;17.616;2022-10-16T05:45:06;9.13;;;5.73;;
56770;SDS011;42641;59.794;17.616;2022-10-16T05:47:34;6.17;;;5.43;;
56770;SDS011;42641;59.794;17.616;2022-10-16T05:50:01;6.30;;;5.37;;
56770;SDS011;42641;59.794;17.616;2022-10-16T05:52:29;7.30;;;5.07;;
56770;SDS011;42641;59.794;17.616;2022-10-16T05:54:56;5.80;;;5.20;;
56770;SDS011;42641;59.794;17.616;2022-10-16T05:57:22;6.23;;;5.43;;
56770;SDS011;42641;59.794;17.616;2022-10-16T05:59:48;6.90;;;5.80;;
56770;SDS011;42641;59.794;17.616;2022-10-16T06:02:15;7.17;;;5.50;;
56770;SDS011;42641;59.794;17.616;2022-10-16T06:04:41;6.13;;;5.10;;
56770;SDS011;42641;59.794;17.616;2022-10-16T06:07:07;5.67;;;5.17;;
56770;SDS011;42641;59.794;17.616;2022-10-16T06:09:34;5.30;;;4.80;;
56770;SDS011;42641;59.794;17.616;2022-10-16T06:12:00;6.80;;;5.27;;
56770;SDS011;42641;59.794;17.616;2022-10-16T06:14:27;5.53;;;4.80;;
56770;SDS011;42641;59.794;17.616;2022-10-16T06:16:53;5.50;;;5.00;;
56770;SDS011;42641;59.794;17.616;2022-10-16T06:19:19;6.30;;;4.87;;
56770;SDS011;42641;59.794;17.616;2022-10-16T06:21:46;7.13;;;5.27;;
56770;SDS011;42641;59.794;17.616;2022-10-16T06:24:12;7.03;;;4.63;;
56770;SDS011;42641;59.794;17.616;2022-10-16T06:26:38;7.60;;;4.77;;
56770;SDS011;42641;59.794;17.616;2022-10-16T06:29:05;5.83;;;4.70;;
56770;SDS011;42641;59.794;17.616;2022-10-16T06:31:31;7.77;;;5.47;;
56770;SDS011;42641;59.794;17.616;2022-10-16T06:33:59;8.47;;;5.27;;
56770;SDS011;42641;59.794;17.616;2022-10-16T06:36:26;6.80;;;4.70;;
56770;SDS011;42641;59.794;17.616;2022-10-16T06:38:53;5.57;;;5.03;;
56770;SDS011;42641;59.794;17.616;2022-10-16T06:41:20;7.13;;;4.87;;
56770;SDS011;42641;59.794;17.616;2022-10-16T06:43:48;5.77;;;5.17;;
56770;SDS011;42641;59.794;17.616;2022-10-16T06:46:16;8.67;;;5.00;;
56770;SDS011;42641;59.794;17.616;2022-10-16T06:48:44;5.10;;;4.60;;
56770;SDS011;42641;59.794;17.616;2022-10-16T06:51:15;8.53;;;4.67;;
56770;SDS011;42641;59.794;17.616;2022-10-16T06:53:43;6.77;;;5.10;;
56770;SDS011;42641;59.794;17.616;2022-10-16T06:56:15;4.63;;;4.07;;
56770;SDS011;42641;59.794;17.616;2022-10-16T06:58:44;5.17;;;4.67;;
56770;SDS011;42641;59.794;17.616;2022-10-16T07:01:11;6.37;;;4.50;;
56770;SDS011;42641;59.794;17.616;2022-10-16T07:03:42;7.57;;;4.77;;
56770;SDS011;42641;59.794;17.616;2022-10-16T07:06:10;7.97;;;4.57;;
56770;SDS011;42641;59.794;17.616;2022-10-16T07:08:38;7.50;;;4.63;;
56770;SDS011;42641;59.794;17.616;2022-10-16T07:11:06;5.17;;;4.73;;
56770;SDS011;42641;59.794;17.616;2022-10-16T07:13:35;7.93;;;4.50;;
56770;SDS011;42641;59.794;17.616;2022-10-16T07:16:09;4.60;;;4.20;;
56770;SDS011;42641;59.794;17.616;2022-10-16T07:18:41;5.97;;;4.20;;
56770;SDS011;42641;59.794;17.616;2022-10-16T07:21:12;4.80;;;4.10;;
56770;SDS011;42641;59.794;17.616;2022-10-16T07:23:40;5.80;;;4.57;;
56770;SDS011;42641;59.794;17.616;2022-10-16T07:26:07;4.93;;;4.23;;
56770;SDS011;42641;59.794;17.616;2022-10-16T07:28:34;5.40;;;4.07;;
56770;SDS011;42641;59.794;17.616;2022-10-16T07:31:04;5.43;;;4.30;;
56770;SDS011;42641;59.794;17.616;2022-10-16T07:33:32;4.50;;;4.10;;
56770;SDS011;42641;59.794;17.616;2022-10-16T07:36:00;5.77;;;4.20;;
56770;SDS011;42641;59.794;17.616;2022-10-16T07:38:27;5.03;;;4.37;;
56770;SDS011;42641;59.794;17.616;2022-10-16T07:41:01;5.27;;;4.10;;
56770;SDS011;42641;59.794;17.616;2022-10-16T07:43:29;8.20;;;4.63;;
56770;SDS011;42641;59.794;17.616;2022-10-16T07:45:56;6.67;;;4.50;;
56770;SDS011;42641;59.794;17.616;2022-10-16T07:48:23;5.27;;;4.73;;
56770;SDS011;42641;59.794;17.616;2022-10-16T07:50:52;4.47;;;4.07;;
56770;SDS011;42641;59.794;17.616;2022-10-16T07:53:18;7.70;;;4.00;;
56770;SDS011;42641;59.794;17.616;2022-10-16T07:55:44;4.40;;;3.87;;
56770;SDS011;42641;59.794;17.616;2022-10-16T07:58:11;5.50;;;4.47;;
56770;SDS011;42641;59.794;17.616;2022-10-16T08:00:37;4.93;;;3.80;;
56770;SDS011;42641;59.794;17.616;2022-10-16T08:03:03;7.03;;;4.03;;
56770;SDS011;42641;59.794;17.616;2022-10-16T08:05:31;7.30;;;4.13;;
56770;SDS011;42641;59.794;17.616;2022-10-16T08:07:59;8.70;;;4.63;;
56770;SDS011;42641;59.794;17.616;2022-10-16T08:10:26;4.00;;;3.57;;
56770;SDS011;42641;59.794;17.616;2022-10-16T08:12:54;6.07;;;3.90;;
56770;SDS011;42641;59.794;17.616;2022-10-16T08:15:20;6.53;;;3.97;;
56770;SDS011;42641;59.794;17.616;2022-10-16T08:18:00;4.17;;;3.50;;
56770;SDS011;42641;59.794;17.616;2022-10-16T08:20:28;5.43;;;4.00;;
56770;SDS011;42641;59.794;17.616;2022-10-16T08:22:56;5.27;;;3.50;;
56770;SDS011;42641;59.794;17.616;2022-10-16T08:25:23;4.10;;;3.23;;
56770;SDS011;42641;59.794;17.616;2022-10-16T08:27:49;4.47;;;3.20;;
56770;SDS011;42641;59.794;17.616;2022-10-16T08:30:17;5.13;;;3.43;;
56770;SDS011;42641;59.794;17.616;2022-10-16T08:32:45;5.97;;;3.33;;
56770;SDS011;42641;59.794;17.616;2022-10-16T08:35:12;5.93;;;3.27;;
56770;SDS011;42641;59.794;17.616;2022-10-16T08:37:39;5.73;;;3.47;;
56770;SDS011;42641;59.794;17.616;2022-10-16T08:40:06;3.77;;;3.40;;
56770;SDS011;42641;59.794;17.616;2022-10-16T08:50:45;3.87;;;3.00;;
56770;SDS011;42641;59.794;17.616;2022-10-16T08:53:17;5.30;;;3.10;;
56770;SDS011;42641;59.794;17.616;2022-10-16T08:55:54;4.70;;;3.27;;
56770;SDS011;42641;59.794;17.616;2022-10-16T08:58:22;3.70;;;3.27;;
56770;SDS011;42641;59.794;17.616;2022-10-16T09:00:53;4.33;;;3.10;;
56770;SDS011;42641;59.794;17.616;2022-10-16T09:11:19;4.60;;;3.03;;
56770;SDS011;42641;59.794;17.616;2022-10-16T09:14:02;3.80;;;3.00;;
56770;SDS011;42641;59.794;17.616;2022-10-16T09:19:55;3.93;;;2.83;;
56770;SDS011;42641;59.794;17.616;2022-10-16T09:22:39;8.93;;;3.13;;
56770;SDS011;42641;59.794;17.616;2022-10-16T09:25:13;3.90;;;3.00;;
56770;SDS011;42641;59.794;17.616;2022-10-16T09:27:42;4.40;;;3.07;;
56770;SDS011;42641;59.794;17.616;2022-10-16T09:30:13;5.67;;;2.83;;
56770;SDS011;42641;59.794;17.616;2022-10-16T09:32:43;7.00;;;2.53;;
56770;SDS011;42641;59.794;17.616;2022-10-16T09:35:13;4.67;;;3.00;;
56770;SDS011;42641;59.794;17.616;2022-10-16T09:37:45;4.27;;;2.80;;
56770;SDS011;42641;59.794;17.616;2022-10-16T09:40:28;4.00;;;2.83;;
56770;SDS011;42641;59.794;17.616;2022-10-16T09:51:20;7.00;;;3.17;;
56770;SDS011;42641;59.794;17.616;2022-10-16T09:53:53;4.33;;;3.03;;
56770;SDS011;42641;59.794;17.616;2022-10-16T09:56:26;4.83;;;2.77;;
56770;SDS011;42641;59.794;17.616;2022-10-16T09:58:59;4.10;;;2.47;;
56770;SDS011;42641;59.794;17.616;2022-10-16T10:01:35;4.87;;;2.80;;
56770;SDS011;42641;59.794;17.616;2022-10-16T10:04:04;5.00;;;2.70;;
56770;SDS011;42641;59.794;17.616;2022-10-16T10:06:33;4.43;;;2.50;;
56770;SDS011;42641;59.794;17.616;2022-10-16T10:09:15;6.30;;;3.03;;
56770;SDS011;42641;59.794;17.616;2022-10-16T10:14:27;6.50;;;2.60;;
56770;SDS011;42641;59.794;17.616;2022-10-16T10:17:12;3.80;;;2.40;;
56770;SDS011;42641;59.794;17.616;2022-10-16T10:27:40;7.30;;;3.17;;
56770;SDS011;42641;59.794;17.616;2022-10-16T10:30:38;9.87;;;5.93;;
56770;SDS011;42641;59.794;17.616;2022-10-16T10:46:51;5.73;;;2.67;;
56770;SDS011;42641;59.794;17.616;2022-10-16T10:55:10;3.67;;;2.23;;
56770;SDS011;42641;59.794;17.616;2022-10-16T10:57:52;4.83;;;1.90;;
56770;SDS011;42641;59.794;17.616;2022-10-16T11:06:22;5.35;;;2.20;;
56770;SDS011;42641;59.794;17.616;2022-10-16T11:09:00;5.20;;;2.03;;
56770;SDS011;42641;59.794;17.616;2022-10-16T11:11:42;4.45;;;2.20;;
56770;SDS011;42641;59.794;17.616;2022-10-16T11:14:17;5.78;;;2.20;;
56770;SDS011;42641;59.794;17.616;2022-10-16T11:16:53;5.00;;;2.20;;
56770;SDS011;42641;59.794;17.616;2022-10-16T11:22:19;6.43;;;1.90;;
56770;SDS011;42641;59.794;17.616;2022-10-16T11:30:20;7.68;;;2.72;;
56770;SDS011;42641;59.794;17.616;2022-10-16T11:38:14;8.45;;;2.42;;
56770;SDS011;42641;59.794;17.616;2022-10-16T11:40:50;6.75;;;2.53;;
56770;SDS011;42641;59.794;17.616;2022-10-16T11:43:28;6.00;;;2.20;;
56770;SDS011;42641;59.794;17.616;2022-10-16T11:46:04;7.47;;;2.60;;
56770;SDS011;42641;59.794;17.616;2022-10-16T11:51:34;7.10;;;2.43;;
56770;SDS011;42641;59.794;17.616;2022-10-16T11:54:14;7.90;;;2.43;;
56770;SDS011;42641;59.794;17.616;2022-10-16T11:57:13;6.97;;;2.43;;
56770;SDS011;42641;59.794;17.616;2022-10-16T11:59:51;7.60;;;2.70;;
56770;SDS011;42641;59.794;17.616;2022-10-16T12:08:24;5.40;;;2.20;;
56770;SDS011;42641;59.794;17.616;2022-10-16T12:10:52;6.63;;;2.37;;
56770;SDS011;42641;59.794;17.616;2022-10-16T12:13:34;6.43;;;2.37;;
56770;SDS011;42641;59.794;17.616;2022-10-16T12:18:38;6.53;;;2.90;;
56770;SDS011;42641;59.794;17.616;2022-10-16T12:21:09;6.77;;;2.60;;
56770;SDS011;42641;59.794;17.616;2022-10-16T12:23:46;4.67;;;2.83;;
56770;SDS011;42641;59.794;17.616;2022-10-16T12:26:34;5.10;;;2.30;;
56770;SDS011;42641;59.794;17.616;2022-10-16T12:29:14;5.53;;;2.00;;
56770;SDS011;42641;59.794;17.616;2022-10-16T12:31:59;6.57;;;2.60;;
56770;SDS011;42641;59.794;17.616;2022-10-16T12:34:29;8.50;;;2.60;;
56770;SDS011;42641;59.794;17.616;2022-10-16T12:37:30;7.70;;;2.90;;
56770;SDS011;42641;59.794;17.616;2022-10-16T12:39:57;7.30;;;2.60;;
56770;SDS011;42641;59.794;17.616;2022-10-16T12:44:55;8.87;;;2.77;;
56770;SDS011;42641;59.794;17.616;2022-10-16T12:49:49;5.23;;;2.30;;
56770;SDS011;42641;59.794;17.616;2022-10-16T12:52:51;6.93;;;3.30;;
56770;SDS011;42641;59.794;17.616;2022-10-16T12:55:17;7.77;;;3.00;;
56770;SDS011;42641;59.794;17.616;2022-10-16T13:06:29;9.17;;;3.27;;
56770;SDS011;42641;59.794;17.616;2022-10-16T13:08:51;7.53;;;3.17;;
56770;SDS011;42641;59.794;17.616;2022-10-16T13:19:55;13.70;;;4.47;;
56770;SDS011;42641;59.794;17.616;2022-10-16T13:28:19;10.57;;;4.07;;
56770;SDS011;42641;59.794;17.616;2022-10-16T13:30:52;12.27;;;3.90;;
56770;SDS011;42641;59.794;17.616;2022-10-16T13:36:22;9.13;;;3.63;;
56770;SDS011;42641;59.794;17.616;2022-10-16T13:39:10;8.43;;;3.50;;
56770;SDS011;42641;59.794;17.616;2022-10-16T13:41:37;4.70;;;3.23;;
56770;SDS011;42641;59.794;17.616;2022-10-16T13:44:04;6.67;;;3.20;;
56770;SDS011;42641;59.794;17.616;2022-10-16T13:46:38;6.50;;;3.40;;
56770;SDS011;42641;59.794;17.616;2022-10-16T13:49:10;6.40;;;3.33;;
56770;SDS011;42641;59.794;17.616;2022-10-16T13:51:39;4.50;;;3.10;;
56770;SDS011;42641;59.794;17.616;2022-10-16T13:54:09;6.47;;;3.20;;
56770;SDS011;42641;59.794;17.616;2022-10-16T13:56:38;6.20;;;2.80;;
56770;SDS011;42641;59.794;17.616;2022-10-16T13:59:07;4.33;;;2.20;;
56770;SDS011;42641;59.794;17.616;2022-10-16T14:01:49;3.83;;;2.30;;
56770;SDS011;42641;59.794;17.616;2022-10-16T14:04:19;2.53;;;1.90;;
56770;SDS011;42641;59.794;17.616;2022-10-16T14:06:48;2.27;;;1.50;;
56770;SDS011;42641;59.794;17.616;2022-10-16T14:09:29;2.27;;;1.50;;
56770;SDS011;42641;59.794;17.616;2022-10-16T14:11:58;1.80;;;1.27;;
56770;SDS011;42641;59.794;17.616;2022-10-16T14:14:26;1.87;;;1.50;;
56770;SDS011;42641;59.794;17.616;2022-10-16T14:16:58;1.63;;;1.20;;
56770;SDS011;42641;59.794;17.616;2022-10-16T14:19:25;2.83;;;1.50;;
56770;SDS011;42641;59.794;17.616;2022-10-16T14:21:54;1.57;;;1.30;;
56770;SDS011;42641;59.794;17.616;2022-10-16T14:24:42;3.23;;;1.40;;
56770;SDS011;42641;59.794;17.616;2022-10-16T14:27:20;1.47;;;1.30;;
56770;SDS011;42641;59.794;17.616;2022-10-16T14:30:12;1.30;;;1.20;;
56770;SDS011;42641;59.794;17.616;2022-10-16T14:32:58;2.73;;;1.30;;
56770;SDS011;42641;59.794;17.616;2022-10-16T14:35:30;1.70;;;1.17;;
56770;SDS011;42641;59.794;17.616;2022-10-16T14:37:59;3.13;;;1.10;;
56770;SDS011;42641;59.794;17.616;2022-10-16T14:40:29;0.73;;;0.73;;
56770;SDS011;42641;59.794;17.616;2022-10-16T14:42:57;1.10;;;1.00;;
56770;SDS011;42641;59.794;17.616;2022-10-16T14:45:27;4.30;;;1.43;;
56770;SDS011;42641;59.794;17.616;2022-10-16T14:48:00;1.13;;;1.03;;
56770;SDS011;42641;59.794;17.616;2022-10-16T14:50:29;3.97;;;1.17;;
56770;SDS011;42641;59.794;17.616;2022-10-16T14:52:55;1.87;;;1.10;;
56770;SDS011;42641;59.794;17.616;2022-10-16T14:55:22;1.87;;;1.20;;
56770;SDS011;42641;59.794;17.616;2022-10-16T14:57:48;2.13;;;1.13;;
56770;SDS011;42641;59.794;17.616;2022-10-16T15:00:22;1.57;;;1.20;;
56770;SDS011;42641;59.794;17.616;2022-10-16T15:02:50;7.13;;;1.50;;
56770;SDS011;42641;59.794;17.616;2022-10-16T15:05:21;1.50;;;1.20;;
56770;SDS011;42641;59.794;17.616;2022-10-16T15:07:50;2.23;;;1.30;;
56770;SDS011;42641;59.794;17.616;2022-10-16T15:10:19;2.40;;;1.37;;
56770;SDS011;42641;59.794;17.616;2022-10-16T15:12:50;4.33;;;1.20;;
56770;SDS011;42641;59.794;17.616;2022-10-16T15:17:52;4.23;;;1.10;;
56770;SDS011;42641;59.794;17.616;2022-10-16T15:20:22;3.07;;;1.50;;
56770;SDS011;42641;59.794;17.616;2022-10-16T15:22:49;3.97;;;1.50;;
56770;SDS011;42641;59.794;17.616;2022-10-16T15:25:37;2.07;;;1.50;;
56770;SDS011;42641;59.794;17.616;2022-10-16T15:28:08;4.07;;;1.50;;
56770;SDS011;42641;59.794;17.616;2022-10-16T15:30:35;2.33;;;1.50;;
56770;SDS011;42641;59.794;17.616;2022-10-16T15:33:03;1.70;;;1.40;;
56770;SDS011;42641;59.794;17.616;2022-10-16T15:35:31;2.47;;;1.60;;
56770;SDS011;42641;59.794;17.616;2022-10-16T15:37:57;3.27;;;1.30;;
56770;SDS011;42641;59.794;17.616;2022-10-16T15:40:23;2.73;;;1.33;;
56770;SDS011;42641;59.794;17.616;2022-10-16T15:42:50;2.23;;;1.40;;
56770;SDS011;42641;59.794;17.616;2022-10-16T15:45:16;3.97;;;1.13;;
56770;SDS011;42641;59.794;17.616;2022-10-16T15:47:44;1.57;;;1.27;;
56770;SDS011;42641;59.794;17.616;2022-10-16T15:50:11;1.83;;;1.10;;
56770;SDS011;42641;59.794;17.616;2022-10-16T15:52:39;1.77;;;1.07;;
56770;SDS011;42641;59.794;17.616;2022-10-16T15:55:07;3.03;;;1.23;;
56770;SDS011;42641;59.794;17.616;2022-10-16T15:57:35;2.67;;;1.60;;
56770;SDS011;42641;59.794;17.616;2022-10-16T16:00:07;2.50;;;1.53;;
56770;SDS011;42641;59.794;17.616;2022-10-16T16:02:38;3.70;;;1.30;;
56770;SDS011;42641;59.794;17.616;2022-10-16T16:05:04;4.73;;;1.30;;
56770;SDS011;42641;59.794;17.616;2022-10-16T16:07:34;1.53;;;0.83;;
56770;SDS011;42641;59.794;17.616;2022-10-16T16:10:03;1.17;;;0.87;;
56770;SDS011;42641;59.794;17.616;2022-10-16T16:12:32;2.33;;;1.20;;
56770;SDS011;42641;59.794;17.616;2022-10-16T16:14:59;3.23;;;1.10;;
56770;SDS011;42641;59.794;17.616;2022-10-16T16:17:25;1.47;;;1.00;;
56770;SDS011;42641;59.794;17.616;2022-10-16T16:19:52;3.03;;;1.00;;
56770;SDS011;42641;59.794;17.616;2022-10-16T16:22:18;3.97;;;1.20;;
56770;SDS011;42641;59.794;17.616;2022-10-16T16:24:44;1.97;;;1.30;;
56770;SDS011;42641;59.794;17.616;2022-10-16T16:27:11;5.60;;;1.10;;
56770;SDS011;42641;59.794;17.616;2022-10-16T16:29:39;1.77;;;1.20;;
56770;SDS011;42641;59.794;17.616;2022-10-16T16:32:05;3.20;;;1.30;;
56770;SDS011;42641;59.794;17.616;2022-10-16T16:34:32;1.30;;;1.10;;
56770;SDS011;42641;59.794;17.616;2022-10-16T16:36:59;1.77;;;1.03;;
56770;SDS011;42641;59.794;17.616;2022-10-16T16:39:26;1.87;;;1.20;;
56770;SDS011;42641;59.794;17.616;2022-10-16T16:41:52;2.33;;;1.40;;
56770;SDS011;42641;59.794;17.616;2022-10-16T16:44:20;2.53;;;1.13;;
56770;SDS011;42641;59.794;17.616;2022-10-16T16:46:47;2.97;;;1.50;;
56770;SDS011;42641;59.794;17.616;2022-10-16T16:49:13;3.97;;;1.30;;
56770;SDS011;42641;59.794;17.616;2022-10-16T16:51:40;2.83;;;1.30;;
56770;SDS011;42641;59.794;17.616;2022-10-16T16:54:07;3.60;;;1.30;;
56770;SDS011;42641;59.794;17.616;2022-10-16T16:56:35;3.07;;;1.17;;
56770;SDS011;42641;59.794;17.616;2022-10-16T16:59:01;3.87;;;1.40;;
56770;SDS011;42641;59.794;17.616;2022-10-16T17:01:28;3.03;;;1.10;;
56770;SDS011;42641;59.794;17.616;2022-10-16T17:03:56;3.80;;;1.37;;